createdAt,value
2019-02-16T00:01:02.120Z,20.67
2019-02-16T00:03:36.499Z,20.37
2019-02-16T00:06:08.126Z,19.60
2019-02-16T00:08:40.623Z,19.27
2019-02-16T00:11:12.110Z,20.17
2019-02-16T00:13:43.541Z,20.13
2019-02-16T00:16:15.013Z,18.83
2019-02-16T00:18:46.622Z,20.17
2019-02-16T00:21:18.116Z,18.47
2019-02-16T00:23:52.082Z,18.50
2019-02-16T00:26:23.476Z,18.50
2019-02-16T00:28:54.866Z,18.83
2019-02-16T00:31:26.405Z,18.43
2019-02-16T00:33:57.828Z,18.60
2019-02-16T00:36:29.229Z,18.60
2019-02-16T00:39:00.608Z,18.70
2019-02-16T00:41:32.006Z,19.07
2019-02-16T00:44:03.443Z,19.30
2019-02-16T00:46:34.894Z,19.70
2019-02-16T00:49:06.333Z,19.33
2019-02-16T00:51:37.686Z,18.87
2019-02-16T00:54:09.109Z,19.73
2019-02-16T00:56:40.522Z,19.50
2019-02-16T00:59:12.074Z,19.83
2019-02-16T01:01:43.584Z,18.90
2019-02-16T01:04:15.038Z,18.97
2019-02-16T01:06:49.124Z,19.00
2019-02-16T01:09:21.776Z,19.30
2019-02-16T01:11:53.321Z,19.00
2019-02-16T01:14:24.684Z,20.47
2019-02-16T01:16:56.126Z,18.53
2019-02-16T01:19:27.581Z,19.37
2019-02-16T01:21:58.998Z,19.33
2019-02-16T01:24:33.428Z,19.27
2019-02-16T01:27:04.907Z,18.87
2019-02-16T01:29:36.352Z,19.77
2019-02-16T01:32:07.806Z,20.23
2019-02-16T01:34:39.230Z,20.57
2019-02-16T01:37:10.670Z,21.00
2019-02-16T01:39:42.046Z,19.77
2019-02-16T01:42:13.629Z,18.50
2019-02-16T01:44:44.974Z,18.70
2019-02-16T01:47:16.490Z,18.57
2019-02-16T01:49:48.058Z,19.60
2019-02-16T01:52:21.257Z,19.60
2019-02-16T01:54:52.628Z,18.57
2019-02-16T01:57:24.026Z,19.30
2019-02-16T01:59:55.433Z,19.07
2019-02-16T02:02:26.894Z,19.60
2019-02-16T02:04:58.372Z,19.20
2019-02-16T02:07:29.847Z,19.97
2019-02-16T02:10:01.243Z,19.67
2019-02-16T02:12:34.335Z,19.53
2019-02-16T02:15:06.230Z,20.10
2019-02-16T02:17:37.647Z,18.97
2019-02-16T02:20:09.173Z,19.67
2019-02-16T02:22:40.614Z,17.87
2019-02-16T02:25:13.185Z,18.40
2019-02-16T02:27:44.701Z,18.10
2019-02-16T02:30:16.066Z,17.60
2019-02-16T02:32:47.526Z,18.77
2019-02-16T02:35:19.095Z,19.30
2019-02-16T02:37:50.409Z,18.70
2019-02-16T02:40:23.686Z,17.83
2019-02-16T02:42:55.190Z,18.57
2019-02-16T02:45:26.669Z,17.70
2019-02-16T02:47:58.090Z,18.37
2019-02-16T02:50:29.559Z,17.83
2019-02-16T02:53:01.054Z,17.97
2019-02-16T02:55:32.363Z,18.67
2019-02-16T02:58:03.866Z,18.13
2019-02-16T03:00:37.958Z,18.73
2019-02-16T03:03:09.287Z,18.40
2019-02-16T03:05:40.674Z,18.93
2019-02-16T03:08:12.184Z,17.97
2019-02-16T03:10:43.599Z,17.27
2019-02-16T03:13:16.980Z,17.70
2019-02-16T03:15:48.308Z,18.50
2019-02-16T03:18:20.592Z,18.37
2019-02-16T03:20:52.015Z,17.47
2019-02-16T03:23:23.615Z,18.13
2019-02-16T03:26:28.747Z,17.70
2019-02-16T03:29:36.733Z,17.77
2019-02-16T03:32:43.459Z,17.83
2019-02-16T03:35:45.661Z,17.20
2019-02-16T03:38:45.019Z,17.90
2019-02-16T03:41:16.448Z,18.13
2019-02-16T03:43:48.278Z,18.37
2019-02-16T03:46:19.861Z,18.03
2019-02-16T03:48:51.194Z,18.37
2019-02-16T03:51:22.735Z,18.20
2019-02-16T03:53:54.077Z,18.40
2019-02-16T03:56:27.117Z,18.43
2019-02-16T03:58:58.434Z,18.93
2019-02-16T04:01:29.823Z,18.23
2019-02-16T04:04:01.296Z,18.43
2019-02-16T04:06:32.766Z,18.00
2019-02-16T04:09:05.733Z,18.23
2019-02-16T04:11:37.049Z,18.80
2019-02-16T04:14:09.374Z,17.17
2019-02-16T04:16:40.841Z,17.53
2019-02-16T04:19:12.197Z,18.97
2019-02-16T04:21:43.550Z,18.23
2019-02-16T04:24:14.945Z,17.57
2019-02-16T04:26:46.349Z,17.77
2019-02-16T04:29:19.437Z,17.57
2019-02-16T04:31:50.918Z,17.70
2019-02-16T04:34:24.702Z,17.60
2019-02-16T04:36:56.190Z,17.90
2019-02-16T04:39:27.557Z,18.00
2019-02-16T04:42:01.163Z,17.80
2019-02-16T04:44:32.678Z,17.03
2019-02-16T04:47:04.151Z,18.50
2019-02-16T04:49:37.057Z,17.97
2019-02-16T04:52:08.763Z,18.70
2019-02-16T04:54:41.184Z,18.10
2019-02-16T04:57:12.680Z,17.83
2019-02-16T04:59:44.074Z,17.77
2019-02-16T05:02:15.506Z,18.30
2019-02-16T05:04:47.081Z,17.37
2019-02-16T05:07:18.709Z,16.67
2019-02-16T05:09:50.534Z,16.93
2019-02-16T05:12:24.678Z,17.63
2019-02-16T05:15:00.976Z,16.60
2019-02-16T05:17:33.290Z,16.80
2019-02-16T05:20:05.079Z,17.17
2019-02-16T05:22:44.166Z,17.47
2019-02-16T05:25:09.655Z,17.00
2019-02-16T05:27:41.104Z,17.00
2019-02-16T05:30:12.598Z,17.67
2019-02-16T05:32:44.204Z,17.23
2019-02-16T05:35:15.524Z,17.43
2019-02-16T05:37:46.970Z,19.53
2019-02-16T05:40:21.458Z,20.07
2019-02-16T05:42:53.949Z,19.07
2019-02-16T05:45:26.376Z,21.03
2019-02-16T05:48:06.970Z,19.93
2019-02-16T05:50:38.390Z,18.40
2019-02-16T05:53:09.799Z,20.33
2019-02-16T05:55:53.263Z,19.60
2019-02-16T05:58:24.686Z,20.20
2019-02-16T06:00:56.125Z,20.50
2019-02-16T06:03:27.413Z,18.80
2019-02-16T06:05:58.788Z,18.80
2019-02-16T06:08:41.851Z,18.97
2019-02-16T06:11:13.353Z,18.53
2019-02-16T06:13:44.957Z,18.03
2019-02-16T06:16:16.517Z,17.27
2019-02-16T06:18:48.800Z,17.37
2019-02-16T06:21:31.625Z,16.87
2019-02-16T06:24:03.042Z,17.50
2019-02-16T06:26:34.277Z,17.27
2019-02-16T06:29:05.632Z,17.77
2019-02-16T06:31:37.082Z,17.07
2019-02-16T06:34:08.526Z,17.13
2019-02-16T06:36:43.215Z,16.90
2019-02-16T06:39:26.962Z,16.63
2019-02-16T06:41:58.361Z,16.63
2019-02-16T06:44:29.702Z,16.60
2019-02-16T06:47:01.110Z,17.27
2019-02-16T06:49:32.510Z,16.53
2019-02-16T06:52:04.048Z,16.13
2019-02-16T06:54:47.619Z,16.10
2019-02-16T06:57:32.323Z,16.17
2019-02-16T07:00:04.696Z,16.90
2019-02-16T07:02:36.007Z,17.33
2019-02-16T07:05:07.901Z,16.43
2019-02-16T07:07:39.301Z,17.13
2019-02-16T07:10:10.785Z,17.20
2019-02-16T07:12:43.184Z,17.43
2019-02-16T07:15:14.626Z,16.77
2019-02-16T07:17:52.843Z,16.67
2019-02-16T07:20:25.002Z,16.97
2019-02-16T07:22:56.452Z,16.73
2019-02-16T07:25:28.078Z,16.87
2019-02-16T07:28:10.922Z,16.90
2019-02-16T07:30:42.338Z,16.53
2019-02-16T07:33:23.925Z,17.77
2019-02-16T07:35:55.297Z,15.60
2019-02-16T07:38:26.687Z,16.93
2019-02-16T07:40:58.057Z,15.73
2019-02-16T07:43:42.601Z,16.03
2019-02-16T07:46:45.758Z,14.93
2019-02-16T07:49:35.237Z,14.13
2019-02-16T07:52:24.460Z,14.60
2019-02-16T07:55:06.426Z,15.60
2019-02-16T07:57:52.477Z,15.70
2019-02-16T08:00:31.548Z,15.53
2019-02-16T08:03:10.746Z,15.60
2019-02-16T08:06:10.434Z,15.17
2019-02-16T08:08:52.484Z,15.63
2019-02-16T08:11:30.145Z,16.20
2019-02-16T08:14:35.649Z,15.63
2019-02-16T08:17:24.736Z,14.80
2019-02-16T08:20:16.837Z,15.53
2019-02-16T08:22:58.358Z,15.30
2019-02-16T08:25:45.781Z,15.50
2019-02-16T08:28:31.403Z,15.50
2019-02-16T08:31:11.605Z,14.90
2019-02-16T08:33:48.278Z,14.77
2019-02-16T08:36:31.370Z,14.50
2019-02-16T08:39:08.566Z,14.43
2019-02-16T08:41:59.463Z,14.53
2019-02-16T08:45:08.264Z,15.03
2019-02-16T08:47:56.437Z,14.40
2019-02-16T08:50:54.528Z,15.30
2019-02-16T08:53:49.331Z,14.83
2019-02-16T08:56:28.006Z,13.80
2019-02-16T08:59:17.306Z,13.90
2019-02-16T09:02:07.866Z,14.40
2019-02-16T09:04:54.813Z,13.87
2019-02-16T09:07:31.559Z,13.23
2019-02-16T09:12:57.094Z,12.83
2019-02-16T09:15:47.664Z,13.13
2019-02-16T09:18:38.179Z,12.97
2019-02-16T09:21:28.737Z,13.13
2019-02-16T09:24:15.109Z,12.43
2019-02-16T09:27:05.424Z,13.13
2019-02-16T09:29:55.946Z,12.63
2019-02-16T09:32:46.341Z,13.07
2019-02-16T09:35:27.364Z,12.40
2019-02-16T09:38:26.783Z,12.70
2019-02-16T09:41:16.061Z,12.53
2019-02-16T09:44:16.542Z,12.13
2019-02-16T09:47:07.017Z,12.47
2019-02-16T09:50:19.453Z,12.03
2019-02-16T09:53:10.011Z,12.93
2019-02-16T09:56:00.419Z,12.23
2019-02-16T09:58:56.146Z,12.63
2019-02-16T10:01:34.718Z,12.50
2019-02-16T10:04:11.074Z,12.63
2019-02-16T10:07:01.528Z,12.90
2019-02-16T10:09:44.261Z,12.30
2019-02-16T10:12:23.604Z,12.93
2019-02-16T10:15:32.260Z,12.83
2019-02-16T10:18:21.458Z,12.50
2019-02-16T10:21:03.455Z,13.57
2019-02-16T10:24:05.909Z,12.20
2019-02-16T10:26:46.355Z,13.47
2019-02-16T10:29:30.013Z,11.90
2019-02-16T10:32:34.689Z,12.17
2019-02-16T10:35:24.502Z,11.40
2019-02-16T10:38:02.709Z,11.60
2019-02-16T10:41:03.220Z,11.23
2019-02-16T10:43:43.090Z,11.50
2019-02-16T10:46:33.693Z,9.73
2019-02-16T10:49:51.085Z,10.27
2019-02-16T10:52:44.323Z,14.50
2019-02-16T10:55:43.885Z,9.30
2019-02-16T10:58:36.186Z,9.07
2019-02-16T11:01:44.722Z,8.47
2019-02-16T11:04:39.527Z,8.83
2019-02-16T11:07:30.038Z,9.20
2019-02-16T11:10:18.991Z,8.70
2019-02-16T11:13:13.648Z,8.00
2019-02-16T11:16:13.029Z,8.60
2019-02-16T11:19:02.485Z,8.60
2019-02-16T11:21:55.617Z,9.50
2019-02-16T11:24:53.101Z,8.83
2019-02-16T11:27:41.101Z,9.17
2019-02-16T11:30:46.457Z,9.27
2019-02-16T11:33:35.501Z,8.63
2019-02-16T11:36:17.928Z,8.60
2019-02-16T11:39:26.454Z,9.27
2019-02-16T11:42:14.898Z,9.00
2019-02-16T11:44:58.249Z,8.43
2019-02-16T11:47:51.357Z,7.93
2019-02-16T11:50:41.843Z,8.00
2019-02-16T11:53:35.278Z,7.77
2019-02-16T11:56:25.673Z,8.60
2019-02-16T11:59:17.833Z,8.37
2019-02-16T12:02:18.561Z,9.13
2019-02-16T12:05:00.420Z,8.53
2019-02-16T12:07:54.619Z,9.50
2019-02-16T12:10:45.154Z,9.23
2019-02-16T12:13:32.811Z,9.40
2019-02-16T12:16:24.436Z,9.03
2019-02-16T12:19:20.963Z,8.83
2019-02-16T12:22:11.537Z,8.57
2019-02-16T12:25:10.981Z,8.93
2019-02-16T12:28:00.307Z,7.70
2019-02-16T12:30:59.587Z,7.17
2019-02-16T12:33:48.525Z,8.97
2019-02-16T12:36:36.568Z,5.53
2019-02-16T12:39:32.938Z,5.60
2019-02-16T12:42:24.192Z,5.60
2019-02-16T12:45:03.965Z,5.77
2019-02-16T12:47:58.586Z,5.60
2019-02-16T12:50:43.700Z,6.17
2019-02-16T12:53:32.797Z,4.73
2019-02-16T12:56:22.571Z,5.20
2019-02-16T12:59:04.333Z,4.80
2019-02-16T13:02:09.556Z,4.70
2019-02-16T13:05:07.006Z,7.57
2019-02-16T13:07:56.270Z,5.07
2019-02-16T13:10:46.697Z,5.03
2019-02-16T13:13:36.045Z,4.60
2019-02-16T13:16:26.092Z,5.40
2019-02-16T13:19:09.842Z,5.93
2019-02-16T13:22:00.263Z,6.53
2019-02-16T13:24:50.673Z,5.90
2019-02-16T13:27:44.390Z,6.10
2019-02-16T13:30:38.921Z,6.13
2019-02-16T13:33:18.055Z,5.37
2019-02-16T13:36:26.096Z,5.63
2019-02-16T13:39:31.736Z,5.23
2019-02-16T13:42:22.364Z,4.97
2019-02-16T13:45:19.057Z,5.67
2019-02-16T13:47:57.782Z,5.67
2019-02-16T13:50:47.178Z,5.70
2019-02-16T13:53:36.245Z,6.67
2019-02-16T13:56:33.119Z,8.57
2019-02-16T13:59:14.059Z,6.27
2019-02-16T14:02:05.143Z,6.73
2019-02-16T14:05:01.659Z,6.60
2019-02-16T14:07:55.161Z,6.80
2019-02-16T14:11:00.605Z,6.87
2019-02-16T14:13:50.006Z,6.83
2019-02-16T14:16:33.993Z,8.17
2019-02-16T14:19:05.481Z,7.60
2019-02-16T14:21:36.925Z,7.37
2019-02-16T14:24:08.513Z,7.50
2019-02-16T14:26:39.995Z,7.53
2019-02-16T14:29:11.737Z,7.30
2019-02-16T14:31:43.386Z,7.97
2019-02-16T14:34:14.909Z,8.07
2019-02-16T14:36:47.831Z,7.77
2019-02-16T14:39:29.192Z,8.60
2019-02-16T14:42:00.709Z,8.40
2019-02-16T14:44:32.264Z,7.77
2019-02-16T14:47:15.510Z,8.13
2019-02-16T14:49:46.804Z,8.60
2019-02-16T14:52:18.205Z,8.53
2019-02-16T14:54:49.451Z,8.20
2019-02-16T14:57:20.883Z,11.00
2019-02-16T14:59:52.280Z,12.40
2019-02-16T15:02:24.163Z,8.87
2019-02-16T15:04:55.564Z,9.57
2019-02-16T15:07:26.986Z,8.47
2019-02-16T15:09:58.296Z,8.70
2019-02-16T15:12:29.733Z,8.97
2019-02-16T15:15:01.112Z,8.20
2019-02-16T15:17:32.454Z,9.17
2019-02-16T15:20:16.007Z,8.27
2019-02-16T15:22:47.399Z,8.73
2019-02-16T15:25:18.906Z,9.17
2019-02-16T15:27:50.354Z,9.13
2019-02-16T15:30:21.798Z,9.17
2019-02-16T15:32:53.266Z,9.97
2019-02-16T15:35:24.646Z,9.40
2019-02-16T15:37:56.062Z,9.87
2019-02-16T15:40:27.425Z,9.80
2019-02-16T15:42:58.892Z,9.93
2019-02-16T15:45:30.320Z,10.60
2019-02-16T15:48:13.599Z,9.93
2019-02-16T15:50:44.920Z,9.83
2019-02-16T15:53:16.474Z,9.47
2019-02-16T15:55:47.893Z,9.93
2019-02-16T15:58:19.643Z,9.27
2019-02-16T16:01:05.798Z,9.47
2019-02-16T16:03:49.677Z,9.47
2019-02-16T16:06:21.153Z,9.40
2019-02-16T16:08:59.167Z,9.17
2019-02-16T16:12:02.673Z,10.50
2019-02-16T16:14:45.838Z,10.23
2019-02-16T16:17:42.932Z,16.60
2019-02-16T16:20:24.772Z,10.00
2019-02-16T16:23:03.141Z,9.93
2019-02-16T16:25:49.989Z,10.73
2019-02-16T16:28:46.289Z,10.33
2019-02-16T16:31:36.970Z,9.50
2019-02-16T16:34:32.458Z,9.77
2019-02-16T16:37:12.118Z,9.83
2019-02-16T16:40:03.791Z,9.70
2019-02-16T16:43:04.384Z,10.43
2019-02-16T16:45:50.065Z,10.50
2019-02-16T16:48:46.323Z,9.83
2019-02-16T16:51:25.888Z,10.60
2019-02-16T16:54:03.911Z,10.77
2019-02-16T16:56:55.263Z,11.40
2019-02-16T16:59:45.867Z,9.97
2019-02-16T17:02:54.228Z,10.70
2019-02-16T17:05:52.773Z,11.43
2019-02-16T17:08:34.823Z,11.20
2019-02-16T17:11:37.565Z,11.57
2019-02-16T17:14:33.281Z,11.30
2019-02-16T17:17:26.670Z,11.70
2019-02-16T17:20:26.224Z,11.37
2019-02-16T17:23:31.220Z,12.13
2019-02-16T17:26:39.664Z,12.60
2019-02-16T17:29:28.782Z,11.10
2019-02-16T17:32:20.125Z,12.50
2019-02-16T17:34:58.221Z,12.10
2019-02-16T17:37:48.655Z,11.63
2019-02-16T17:40:42.752Z,12.57
2019-02-16T17:43:38.957Z,10.97
2019-02-16T17:46:20.029Z,13.00
2019-02-16T17:49:20.636Z,11.83
2019-02-16T17:51:59.636Z,12.13
2019-02-16T17:55:08.480Z,11.77
2019-02-16T17:57:44.593Z,12.20
2019-02-16T18:00:27.229Z,12.80
2019-02-16T18:03:26.623Z,12.83
2019-02-16T18:06:28.747Z,12.37
2019-02-16T18:09:19.212Z,13.80
2019-02-16T18:12:24.550Z,14.37
2019-02-16T18:15:14.881Z,17.90
2019-02-16T18:18:19.751Z,13.50
2019-02-16T18:21:27.205Z,13.57
2019-02-16T18:24:06.402Z,13.67
2019-02-16T18:26:56.987Z,13.30
2019-02-16T18:29:53.129Z,13.63
2019-02-16T18:32:43.557Z,13.77
2019-02-16T18:35:34.871Z,13.77
2019-02-16T18:38:17.529Z,13.53
2019-02-16T18:41:14.033Z,13.43
2019-02-16T18:43:54.267Z,13.47
2019-02-16T18:46:34.292Z,13.77
2019-02-16T18:49:18.774Z,13.47
2019-02-16T18:52:00.805Z,14.43
2019-02-16T18:54:45.552Z,13.93
2019-02-16T18:57:27.479Z,13.50
2019-02-16T19:00:22.401Z,16.67
2019-02-16T19:03:17.837Z,15.97
2019-02-16T19:05:56.895Z,15.33
2019-02-16T19:08:38.350Z,16.97
2019-02-16T19:11:34.761Z,16.60
2019-02-16T19:14:28.026Z,16.43
2019-02-16T19:17:12.219Z,16.60
2019-02-16T19:20:01.413Z,17.13
2019-02-16T19:22:39.498Z,16.70
2019-02-16T19:25:36.052Z,17.50
2019-02-16T19:28:41.461Z,16.80
2019-02-16T19:31:37.837Z,15.80
2019-02-16T19:34:37.374Z,14.73
2019-02-16T19:37:27.953Z,15.00
2019-02-16T19:40:18.559Z,14.87
2019-02-16T19:43:17.020Z,13.97
2019-02-16T19:46:07.519Z,14.70
2019-02-16T19:48:57.989Z,14.67
2019-02-16T19:51:47.653Z,14.87
2019-02-16T19:54:47.240Z,14.90
2019-02-16T19:57:37.741Z,14.60
2019-02-16T20:00:28.803Z,14.67
2019-02-16T20:03:33.309Z,15.93
2019-02-16T20:06:18.520Z,14.63
2019-02-16T20:09:20.903Z,14.40
2019-02-16T20:11:59.768Z,15.50
2019-02-16T20:14:48.927Z,15.07
2019-02-16T20:17:25.718Z,14.63
2019-02-16T20:20:14.690Z,14.60
2019-02-16T20:23:07.956Z,15.80
2019-02-16T20:25:58.383Z,15.90
2019-02-16T20:28:55.723Z,15.47
2019-02-16T20:31:42.452Z,16.20
2019-02-16T20:34:42.909Z,17.10
2019-02-16T20:37:21.529Z,17.50
2019-02-16T20:40:18.913Z,17.00
2019-02-16T20:42:56.195Z,19.50
2019-02-16T20:45:49.762Z,17.37
2019-02-16T20:48:38.942Z,17.90
2019-02-16T20:51:29.409Z,17.43
2019-02-16T20:54:22.625Z,18.50
2019-02-16T20:57:07.015Z,17.47
2019-02-16T20:59:49.349Z,18.30
2019-02-16T21:02:30.710Z,19.70
2019-02-16T21:05:21.113Z,17.57
2019-02-16T21:08:10.465Z,17.73
2019-02-16T21:10:49.865Z,18.13
2019-02-16T21:13:35.059Z,18.63
2019-02-16T21:16:39.413Z,18.17
2019-02-16T21:19:30.344Z,18.33
2019-02-16T21:22:27.055Z,18.00
2019-02-16T21:25:14.197Z,18.47
2019-02-16T21:27:58.558Z,18.70
2019-02-16T21:30:47.676Z,18.33
2019-02-16T21:33:24.294Z,18.60
2019-02-16T21:36:17.334Z,17.93
2019-02-16T21:39:10.538Z,16.83
2019-02-16T21:42:07.332Z,17.37
2019-02-16T21:44:57.801Z,17.50
2019-02-16T21:47:40.302Z,18.13
2019-02-16T21:50:43.884Z,17.70
2019-02-16T21:53:21.693Z,17.40
2019-02-16T21:56:10.902Z,18.70
2019-02-16T21:59:04.459Z,17.73
2019-02-16T22:01:48.742Z,17.50
2019-02-16T22:04:41.860Z,17.37
2019-02-16T22:07:30.958Z,18.20
2019-02-16T22:10:20.549Z,17.30
2019-02-16T22:13:05.872Z,17.57
2019-02-16T22:15:37.328Z,18.77
2019-02-16T22:18:08.726Z,17.40
2019-02-16T22:20:40.126Z,18.40
2019-02-16T22:23:11.518Z,19.40
2019-02-16T22:25:43.032Z,18.57
2019-02-16T22:28:18.781Z,18.43
2019-02-16T22:30:47.600Z,19.40
2019-02-16T22:33:18.936Z,19.03
2019-02-16T22:35:50.292Z,17.60
2019-02-16T22:38:21.867Z,18.40
2019-02-16T22:40:53.304Z,19.63
2019-02-16T22:43:24.768Z,18.50
2019-02-16T22:45:56.219Z,19.40
2019-02-16T22:48:27.741Z,18.73
2019-02-16T22:50:59.305Z,19.53
2019-02-16T22:53:30.921Z,19.03
2019-02-16T22:56:02.345Z,19.17
2019-02-16T22:58:33.746Z,19.67
2019-02-16T23:01:05.357Z,20.07
2019-02-16T23:03:38.465Z,19.60
2019-02-16T23:06:10.024Z,20.20
2019-02-16T23:08:41.350Z,19.90
2019-02-16T23:11:13.777Z,20.13
2019-02-16T23:13:45.451Z,19.97
2019-02-16T23:16:16.920Z,17.63
2019-02-16T23:18:48.444Z,18.27
2019-02-16T23:21:19.945Z,19.07
2019-02-16T23:23:51.397Z,19.77
2019-02-16T23:26:22.775Z,18.87
2019-02-16T23:28:54.315Z,19.07
2019-02-16T23:31:25.701Z,18.37
2019-02-16T23:33:57.238Z,19.30
2019-02-16T23:36:31.673Z,18.80
2019-02-16T23:39:04.585Z,18.77
2019-02-16T23:41:37.597Z,18.83
2019-02-16T23:44:09.092Z,19.27
2019-02-16T23:46:41.446Z,20.30
2019-02-16T23:49:12.776Z,19.17
2019-02-16T23:51:44.216Z,20.83
2019-02-16T23:54:15.764Z,20.00
2019-02-16T23:56:47.269Z,20.57
2019-02-16T23:59:18.608Z,21.33
